createdAt,value
2018-05-24T04:02:46.651Z,74.20
2018-05-24T04:05:15.664Z,74.50
2018-05-24T04:07:44.675Z,74.70
2018-05-24T04:10:13.738Z,74.70
2018-05-24T04:12:42.735Z,74.90
2018-05-24T04:15:11.878Z,74.60
2018-05-24T04:17:40.939Z,74.50
2018-05-24T04:20:09.938Z,74.30
2018-05-24T04:22:38.951Z,74.40
2018-05-24T04:25:08.000Z,74.30
2018-05-24T04:27:37.031Z,74.40
2018-05-24T04:30:06.074Z,74.60
2018-05-24T04:32:35.083Z,74.40
2018-05-24T04:35:04.120Z,74.10
2018-05-24T04:37:33.905Z,73.70
2018-05-24T04:40:02.953Z,74.40
2018-05-24T04:42:31.958Z,73.80
2018-05-24T04:45:01.004Z,74.00
2018-05-24T04:47:30.007Z,73.90
2018-05-24T04:49:59.803Z,73.80
2018-05-24T04:52:28.807Z,73.80
2018-05-24T04:54:58.615Z,73.60
2018-05-24T04:57:27.632Z,73.60
2018-05-24T04:59:56.671Z,73.40
2018-05-24T05:02:25.695Z,73.60
2018-05-24T05:04:55.508Z,74.30
2018-05-24T05:07:24.520Z,74.30
2018-05-24T05:09:54.319Z,74.30
2018-05-24T05:12:23.347Z,74.30
2018-05-24T05:14:52.387Z,75.00
2018-05-24T05:17:21.409Z,73.90
2018-05-24T05:19:50.450Z,74.30
2018-05-24T05:22:19.454Z,74.30
2018-05-24T05:24:49.075Z,74.30
2018-05-24T05:27:18.078Z,74.30
2018-05-24T05:29:47.903Z,74.50
2018-05-24T05:32:16.922Z,74.50
2018-05-24T05:34:45.926Z,74.60
2018-05-24T05:37:14.980Z,75.00
2018-05-24T05:39:44.790Z,73.50
2018-05-24T05:42:14.594Z,73.60
2018-05-24T05:44:43.643Z,73.60
2018-05-24T05:47:12.631Z,74.10
2018-05-24T05:49:41.644Z,73.80
2018-05-24T05:52:10.789Z,73.80
2018-05-24T05:54:40.285Z,73.80
2018-05-24T05:57:09.295Z,74.50
2018-05-24T05:59:38.291Z,74.00
2018-05-24T06:02:07.343Z,73.40
2018-05-24T06:04:36.347Z,73.10
2018-05-24T06:07:06.151Z,73.20
2018-05-24T06:09:35.218Z,73.10
2018-05-24T06:12:04.215Z,73.00
2018-05-24T06:14:33.223Z,72.60
2018-05-24T06:17:02.274Z,72.50
2018-05-24T06:19:31.288Z,72.20
2018-05-24T06:22:00.287Z,72.20
2018-05-24T06:24:29.346Z,71.60
2018-05-24T06:26:58.363Z,70.50
2018-05-24T06:29:27.423Z,68.70
2018-05-24T06:31:56.454Z,67.60
2018-05-24T06:34:25.467Z,66.70
2018-05-24T06:36:54.510Z,64.80
2018-05-24T06:39:23.512Z,64.90
2018-05-24T06:41:52.547Z,65.00
2018-05-24T06:44:21.568Z,64.10
2018-05-24T06:46:50.661Z,62.50
2018-05-24T06:49:19.687Z,62.80
2018-05-24T06:51:48.724Z,62.50
2018-05-24T06:54:17.726Z,62.80
2018-05-24T06:56:46.786Z,63.00
2018-05-24T06:59:15.815Z,63.90
2018-05-24T07:01:44.864Z,62.50
2018-05-24T07:04:13.874Z,61.00
2018-05-24T07:06:42.952Z,58.40
2018-05-24T07:09:12.011Z,57.30
2018-05-24T07:11:41.763Z,56.40
2018-05-24T07:14:10.825Z,58.00
2018-05-24T07:16:40.592Z,58.20
2018-05-24T07:19:09.698Z,58.20
2018-05-24T07:21:38.714Z,58.70
2018-05-24T07:24:07.787Z,55.70
2018-05-24T07:26:36.833Z,52.20
2018-05-24T07:29:05.858Z,50.60
2018-05-24T07:31:34.890Z,51.90
2018-05-24T07:34:03.923Z,53.00
2018-05-24T07:36:32.955Z,53.80
2018-05-24T07:39:02.139Z,54.20
2018-05-24T07:41:31.163Z,54.70
2018-05-24T07:44:00.175Z,54.90
2018-05-24T07:46:30.029Z,54.90
2018-05-24T07:48:59.048Z,54.80
2018-05-24T07:51:28.058Z,54.90
2018-05-24T07:53:57.119Z,54.60
2018-05-24T07:56:26.296Z,56.40
2018-05-24T07:58:55.317Z,55.10
2018-05-24T15:01:12.105Z,50.00
2018-05-24T15:03:41.119Z,50.20
2018-05-24T15:06:10.171Z,49.80
2018-05-24T15:08:39.951Z,50.50
2018-05-24T15:11:08.965Z,50.50
2018-05-24T15:13:49.950Z,52.20
2018-05-24T15:16:18.961Z,52.70
2018-05-24T15:18:47.966Z,52.30
2018-05-24T15:21:17.036Z,53.60
2018-05-24T15:23:46.044Z,53.40
2018-05-24T15:26:15.439Z,54.10
2018-05-24T15:28:44.522Z,53.20
2018-05-24T15:31:13.986Z,53.80
2018-05-24T15:33:43.947Z,52.90
2018-05-24T15:36:13.764Z,55.30
2018-05-24T15:38:42.780Z,55.20
2018-05-24T15:41:11.867Z,55.10
2018-05-24T15:43:40.908Z,54.60
2018-05-24T15:46:09.896Z,53.30
2018-05-24T15:48:38.996Z,55.50
2018-05-24T15:51:08.014Z,56.60
2018-05-24T15:53:37.810Z,59.10
2018-05-24T15:56:06.859Z,59.10
2018-05-24T15:58:36.400Z,61.10
2018-05-24T16:01:05.981Z,63.70
2018-05-24T16:03:34.986Z,64.00
2018-05-24T16:06:05.148Z,65.40
2018-05-24T16:08:34.236Z,69.70
2018-05-24T16:11:03.626Z,71.40
2018-05-24T16:13:33.322Z,71.50
2018-05-24T16:16:05.743Z,70.80
2018-05-24T16:18:34.812Z,70.80
2018-05-24T16:21:03.889Z,72.80
2018-05-24T16:23:33.821Z,74.10
2018-05-24T16:26:04.431Z,73.80
2018-05-24T16:28:33.526Z,74.70
2018-05-24T16:31:02.529Z,73.70
2018-05-24T16:33:31.560Z,72.90
2018-05-24T16:36:00.605Z,72.10
2018-05-24T16:38:29.652Z,73.10
2018-05-24T16:40:59.236Z,74.70
2018-05-24T16:43:29.133Z,75.20
2018-05-24T16:45:58.120Z,75.30
2018-05-24T16:48:27.138Z,75.60
2018-05-24T16:50:56.998Z,75.40
2018-05-24T16:53:26.016Z,75.40
2018-05-24T16:55:55.073Z,73.20
2018-05-24T16:58:24.108Z,72.10
2018-05-24T17:00:53.127Z,72.00
2018-05-24T17:03:22.171Z,71.40
2018-05-24T17:05:51.198Z,72.10
2018-05-24T17:08:20.270Z,72.90
2018-05-24T17:10:49.315Z,73.30
2018-05-24T17:13:18.323Z,73.50
2018-05-24T17:15:47.373Z,73.00
2018-05-24T17:18:16.407Z,73.10
2018-05-24T17:20:45.439Z,74.10
2018-05-24T17:23:14.455Z,76.40
2018-05-24T17:25:43.506Z,77.00
2018-05-24T17:28:12.559Z,76.90
2018-05-24T17:30:42.356Z,76.50
2018-05-24T17:33:11.432Z,76.40
2018-05-24T17:35:40.446Z,76.30
2018-05-24T17:38:10.228Z,74.90
2018-05-24T17:40:39.264Z,75.70
2018-05-24T17:43:09.054Z,74.80
2018-05-24T17:45:38.070Z,74.80
2018-05-24T17:48:07.119Z,74.70
2018-05-24T17:50:36.131Z,75.20
2018-05-24T17:53:05.140Z,74.90
2018-05-24T17:55:34.176Z,75.30
2018-05-24T17:58:03.232Z,75.50
2018-05-24T18:00:33.007Z,75.50
2018-05-24T18:03:02.048Z,75.50
2018-05-24T18:05:31.052Z,74.40
2018-05-24T18:08:00.119Z,74.10
2018-05-24T18:10:29.134Z,74.30
2018-05-24T18:12:58.151Z,75.80
2018-05-24T18:15:27.212Z,76.50
2018-05-24T18:17:56.224Z,76.70
2018-05-24T18:20:25.232Z,76.10
2018-05-24T18:22:54.276Z,76.40
2018-05-24T18:25:23.278Z,76.70
2018-05-24T18:27:53.053Z,75.50
2018-05-24T18:30:22.111Z,75.50
2018-05-24T18:32:51.185Z,76.00
2018-05-24T18:35:20.955Z,76.60
2018-05-24T18:37:50.010Z,76.50
2018-05-24T18:40:19.032Z,76.50
2018-05-24T18:42:48.099Z,76.40
2018-05-24T18:45:17.120Z,76.40
2018-05-24T18:47:46.163Z,76.60
2018-05-24T18:50:15.237Z,76.40
2018-05-24T18:52:44.256Z,76.30
2018-05-24T18:55:13.263Z,76.30
2018-05-24T18:57:42.412Z,76.80
2018-05-24T19:00:11.415Z,76.30
2018-05-24T19:02:41.183Z,76.00
2018-05-24T19:05:10.243Z,76.00
2018-05-24T19:07:39.271Z,76.30
2018-05-24T19:10:08.323Z,76.50
2018-05-24T19:12:37.366Z,76.20
2018-05-24T19:15:06.422Z,76.20
2018-05-24T19:17:35.425Z,76.30
2018-05-24T19:20:04.472Z,76.30
2018-05-24T19:22:33.479Z,75.80
2018-05-24T19:25:03.631Z,75.90
2018-05-24T19:27:32.634Z,75.70
2018-05-24T19:30:01.715Z,75.60
2018-05-24T19:32:30.739Z,75.50
2018-05-24T19:34:59.784Z,75.20
2018-05-24T19:37:28.807Z,74.90
2018-05-24T19:39:57.844Z,74.60
2018-05-24T19:42:26.861Z,74.50
2018-05-24T19:44:56.652Z,74.60
2018-05-24T19:47:25.660Z,74.40
2018-05-24T19:49:55.430Z,74.40
2018-05-24T19:52:24.479Z,74.40
2018-05-24T19:54:54.275Z,74.50
2018-05-24T19:57:23.283Z,74.40
2018-05-24T19:59:52.328Z,74.40
2018-05-24T20:02:21.357Z,74.60
2018-05-24T20:04:50.435Z,74.80
2018-05-24T20:07:19.439Z,74.70
2018-05-24T20:09:49.242Z,74.20
2018-05-24T20:12:18.246Z,74.20
2018-05-24T20:14:48.044Z,74.20
2018-05-24T20:17:17.082Z,74.20
2018-05-24T20:19:46.091Z,74.00
2018-05-24T20:22:15.099Z,73.70
2018-05-24T20:24:44.150Z,73.80
2018-05-24T20:27:13.186Z,74.10
2018-05-24T20:29:42.194Z,74.00
2018-05-24T20:32:11.231Z,73.80
2018-05-24T20:34:40.271Z,73.60
2018-05-24T20:37:09.327Z,73.60
2018-05-24T20:39:38.372Z,74.10
2018-05-24T20:42:07.382Z,74.20
2018-05-24T20:44:37.224Z,73.60
2018-05-24T20:47:06.228Z,73.60
2018-05-24T20:49:35.315Z,74.10
2018-05-24T20:52:04.341Z,74.30
2018-05-24T20:54:33.357Z,74.00
2018-05-24T20:57:02.403Z,74.20
2018-05-24T20:59:31.457Z,74.50
2018-05-24T21:02:01.226Z,74.30
2018-05-24T21:04:30.260Z,74.30
2018-05-24T21:07:00.041Z,74.30
2018-05-24T21:09:29.090Z,74.30
2018-05-24T21:12:00.375Z,74.30
2018-05-24T21:14:29.412Z,74.60
2018-05-24T21:16:58.416Z,74.70
2018-05-24T21:19:27.580Z,74.70
2018-05-24T21:21:56.585Z,75.20
2018-05-24T21:24:26.445Z,74.20
2018-05-24T21:26:55.471Z,74.20
2018-05-24T21:29:24.491Z,74.10
2018-05-24T21:31:53.540Z,74.00
2018-05-24T21:34:22.578Z,73.90
2018-05-24T21:36:52.346Z,73.90
2018-05-24T21:39:21.418Z,73.90
2018-05-24T21:41:50.458Z,74.10
2018-05-24T21:44:19.508Z,74.30
2018-05-24T21:46:48.575Z,74.40
2018-05-24T21:49:17.614Z,74.30
2018-05-24T21:51:46.649Z,74.20
2018-05-24T21:54:16.438Z,74.30
2018-05-24T21:56:45.523Z,74.30
2018-05-24T21:59:14.562Z,75.00
